This is the latest recevied weather packets stored in our database for station/object KF5VOI. If no packets are shown the sender has not sent any weather packets the latest 10 day(s).
| Time | Temp. | Humidity | Pressure | Rain* | Wind** | Luminosity | Snow |
|---|---|---|---|---|---|---|---|
| 1787509595 | 38.89° C | 61% | 1017.3 hPa | 0 mm | - | - | - |
| 1787507795 | 38.33° C | 62% | 1017.6 hPa | 0 mm | - | - | - |
| 1787505995 | 36.67° C | 66% | 1018.2 hPa | 0 mm | - | - | - |
| 1787504195 | 36.11° C | 72% | 1018.7 hPa | 0 mm | - | - | - |
| 1787502396 | 35.56° C | 73% | 1019 hPa | 0 mm | - | - | - |
| 1787500595 | 33.89° C | 78% | 1019 hPa | 0 mm | - | - | - |
| 1787498796 | 33.33° C | 82% | 1018.9 hPa | 0 mm | - | - | - |
| 1787486197 | 27.22° C | 99% | 1017.3 hPa | 0 mm | - | - | - |
| 1787484395 | 27.22° C | 99% | 1017 hPa | 0 mm | - | - | - |
| 1787482595 | 27.78° C | 99% | 1016.8 hPa | 0 mm | - | - | - |
| 1787478999 | 27.78° C | 99% | 1016.4 hPa | 0 mm | - | - | - |
| 1787473595 | 28.33° C | 99% | 1016.2 hPa | 0 mm | - | - | - |
| 1787462915 | 28.89° C | 98% | 1016.3 hPa | 0 mm | - | - | - |
| 1787460995 | 28.89° C | 99% | 1016.4 hPa | 0 mm | - | - | - |
| 1787459195 | 29.44° C | 98% | 1016.4 hPa | 0 mm | - | - | - |
| 1787457395 | 29.44° C | 98% | 1016.3 hPa | 0 mm | - | - | - |
| 1787451995 | 30.56° C | 88% | 1016.5 hPa | 0 mm | - | - | - |
| 1787450195 | 31.11° C | 84% | 1016.3 hPa | 0 mm | - | - | - |
| 1787448395 | 32.22° C | 78% | 1016.1 hPa | 0 mm | - | - | - |
| 1787446596 | 32.78° C | 75% | 1015.8 hPa | 0 mm | - | - | - |
| 1787444795 | 33.89° C | 70% | 1015.7 hPa | 0 mm | - | - | - |
| 1787442995 | 35.56° C | 66% | 1015.5 hPa | 0 mm | - | - | - |
| 1787441196 | 37.78° C | 54% | 1015.3 hPa | 0 mm | - | - | - |
| 1787439395 | 38.89° C | 54% | 1015.5 hPa | 0 mm | - | - | - |
| 1787437596 | 38.89° C | 55% | 1015.5 hPa | 0 mm | - | - | - |
* Rain latest hour (hover to see other rain measurements)
** Current wind speed in m/s (hover to see current wind gust speed)